Time;durP1;ratioP1;P1;durP2;ratioP2;P2;SDS_P1;SDS_P2;PMS_P1;PMS_P2;Temp;Humidity;BMP_temperature;BMP_pressure;BME280_temperature;BME280_humidity;BME280_pressure;Samples;Min_cycle;Max_cycle;Signal;HPM_P1;HPM_P2
2021/08/14 00:01:13;;;;;;;10.55;9.60;;;20.70;99.90;;;21.74;80.52;98536.25;5179250;28;20228;-62
2021/08/14 00:03:48;;;;;;;10.07;9.18;;;20.70;99.90;;;21.74;80.43;98536.25;5179268;28;20199;-62
2021/08/14 00:06:21;;;;;;;10.48;9.55;;;20.60;99.90;;;21.67;80.97;98526.53;5177284;28;20221;-62
2021/08/14 00:08:54;;;;;;;10.80;9.75;;;20.60;99.90;;;21.62;81.28;98533.34;5168990;28;20203;-61
2021/08/14 00:11:27;;;;;;;11.15;10.18;;;20.50;99.90;;;21.58;81.36;98538.50;5172032;28;20210;-62
2021/08/14 00:14:00;;;;;;;10.27;9.30;;;20.50;99.90;;;21.50;81.98;98545.22;5176135;28;20675;-62
2021/08/14 00:16:33;;;;;;;10.90;10.00;;;20.40;99.90;;;21.44;82.36;98539.88;5175874;28;20202;-62
2021/08/14 00:19:07;;;;;;;10.88;9.98;;;20.40;99.90;;;21.40;82.30;98540.63;5176313;28;20203;-61
2021/08/14 00:21:40;;;;;;;10.23;9.30;;;20.30;99.90;;;21.36;82.39;98533.56;5167317;28;20230;-62
2021/08/14 00:24:13;;;;;;;10.15;9.15;;;20.30;99.90;;;21.32;82.51;98534.34;5184813;28;20293;-62
2021/08/14 00:26:47;;;;;;;11.27;10.07;;;20.30;99.90;;;21.32;82.67;98534.34;5180563;28;20690;-62
2021/08/14 00:29:20;;;;;;;10.90;9.90;;;20.20;99.90;;;21.31;82.61;98537.75;5179444;28;20199;-62
2021/08/14 00:31:53;;;;;;;10.90;10.00;;;20.20;99.90;;;21.29;82.36;98529.03;5181611;28;20207;-61
2021/08/14 00:34:27;;;;;;;10.50;9.50;;;20.10;99.90;;;21.20;83.21;98527.06;5167138;28;20215;-62
2021/08/14 00:37:00;;;;;;;10.15;9.25;;;20.10;99.90;;;21.14;83.16;98525.19;5175582;28;20206;-62
2021/08/14 00:39:33;;;;;;;11.27;10.18;;;20.10;99.90;;;21.11;83.01;98522.50;5167548;28;20217;-61
2021/08/14 00:42:07;;;;;;;11.10;10.10;;;20.10;99.90;;;21.05;83.33;98527.56;5166711;28;20229;-61
2021/08/14 00:44:40;;;;;;;11.18;10.18;;;20.00;99.90;;;21.04;83.03;98525.81;5168561;28;20606;-61
2021/08/14 00:47:13;;;;;;;10.85;9.85;;;20.00;99.90;;;21.00;83.30;98531.75;5177771;28;20209;-62
2021/08/14 00:49:47;;;;;;;10.73;9.65;;;20.00;99.90;;;20.96;82.73;98532.53;5183004;28;20199;-62
2021/08/14 00:52:20;;;;;;;9.90;9.10;;;19.90;99.90;;;20.89;82.94;98530.63;5178327;28;20588;-62
2021/08/14 00:54:53;;;;;;;9.93;9.15;;;19.80;99.90;;;20.83;83.20;98523.53;5167041;28;20223;-62
2021/08/14 00:57:26;;;;;;;11.68;9.93;;;19.80;99.90;;;20.81;82.57;98522.59;5166767;28;20605;-62
2021/08/14 01:00:00;;;;;;;11.38;10.30;;;19.80;99.90;;;20.83;82.69;98520.03;5166619;28;20195;-62
2021/08/14 01:02:34;;;;;;;10.07;9.18;;;19.70;99.90;;;20.74;82.68;98528.44;5182693;28;20228;-61
2021/08/14 01:05:10;;;;;;;10.95;9.98;;;19.70;99.90;;;20.69;83.14;98522.28;5174768;28;20314;-62
2021/08/14 01:07:43;;;;;;;10.55;9.65;;;19.70;99.90;;;20.66;83.25;98522.16;5181067;28;20203;-62
2021/08/14 01:10:16;;;;;;;11.10;10.13;;;19.60;99.90;;;20.62;83.56;98521.19;5170290;28;20199;-61
2021/08/14 01:12:50;;;;;;;11.27;10.18;;;19.60;99.90;;;20.64;83.90;98524.72;5171357;28;20202;-62
2021/08/14 01:15:24;;;;;;;11.80;10.63;;;19.50;99.90;;;20.55;84.20;98524.47;5174529;28;20221;-61
2021/08/14 01:17:58;;;;;;;10.95;10.00;;;19.50;99.90;;;20.53;84.35;98525.28;5177450;28;20205;-61
2021/08/14 01:20:33;;;;;;;11.30;10.18;;;19.50;99.90;;;20.46;85.43;98519.88;5169303;28;20194;-62
2021/08/14 01:23:06;;;;;;;11.07;10.07;;;19.50;99.90;;;20.42;84.90;98518.00;5166025;28;20215;-61
2021/08/14 01:25:40;;;;;;;11.20;10.10;;;19.40;99.90;;;20.41;84.60;98520.56;5179416;28;20223;-61
2021/08/14 01:28:14;;;;;;;11.30;10.35;;;19.40;99.90;;;20.33;84.84;98514.28;5179200;28;20208;-61
2021/08/14 01:30:47;;;;;;;11.55;10.48;;;19.30;99.90;;;20.31;84.84;98516.81;5166027;28;20240;-61
2021/08/14 01:33:20;;;;;;;11.55;10.45;;;19.40;99.90;;;20.21;84.65;98507.88;5167175;28;20253;-62
2021/08/14 01:35:55;;;;;;;10.40;9.50;;;19.30;99.90;;;20.19;84.69;98509.56;5171685;28;20725;-61
2021/08/14 01:38:28;;;;;;;10.88;9.88;;;19.30;99.90;;;20.18;84.28;98507.81;5166873;28;20224;-61
2021/08/14 01:41:06;;;;;;;10.77;9.68;;;19.20;99.90;;;20.20;83.72;98503.53;5173591;28;20199;-62
2021/08/14 01:43:59;;;;;;;11.60;10.50;;;19.20;99.90;;;20.17;84.05;98511.25;5176387;28;20230;-62
2021/08/14 01:46:35;;;;;;;11.13;10.23;;;19.10;99.90;;;20.13;84.10;98511.97;5168343;28;20581;-61
2021/08/14 01:49:08;;;;;;;11.05;10.13;;;19.10;99.90;;;20.07;85.40;98509.19;5175132;28;20644;-61
2021/08/14 01:51:41;;;;;;;11.23;10.27;;;19.10;99.90;;;20.06;85.42;98507.44;5181785;28;20210;-61
2021/08/14 01:54:15;;;;;;;10.70;9.80;;;19.20;99.90;;;20.00;85.27;98507.22;5175398;28;20199;-63
2021/08/14 01:56:49;;;;;;;10.82;9.88;;;19.10;99.90;;;19.95;84.43;98503.66;5182425;28;20194;-62
2021/08/14 01:59:24;;;;;;;11.43;10.43;;;19.00;99.90;;;19.90;84.66;98513.00;5165670;28;20202;-61
2021/08/14 02:01:57;;;;;;;10.68;9.73;;;18.90;99.90;;;19.81;84.89;98505.81;5176673;28;20673;-62
2021/08/14 02:04:30;;;;;;;11.93;10.68;;;18.90;99.90;;;19.82;85.80;98507.56;5174521;28;20230;-62
2021/08/14 02:07:04;;;;;;;11.20;10.25;;;19.00;99.90;;;19.87;85.39;98502.53;5168647;28;20672;-62
2021/08/14 02:09:37;;;;;;;10.65;9.75;;;18.90;99.90;;;19.82;85.55;98502.38;5172011;28;20212;-62
2021/08/14 02:12:10;;;;;;;11.48;10.52;;;18.90;99.90;;;19.79;85.03;98499.69;5171032;28;20664;-61
2021/08/14 02:14:45;;;;;;;11.73;10.52;;;18.80;99.90;;;19.78;85.59;98501.41;5180518;28;20223;-61
2021/08/14 02:17:18;;;;;;;12.13;11.10;;;18.80;99.90;;;19.74;85.80;98503.84;5165579;28;20203;-61
2021/08/14 02:19:51;;;;;;;11.82;10.73;;;18.80;99.90;;;19.69;86.25;98505.44;5177052;28;20202;-62
2021/08/14 02:22:24;;;;;;;11.35;10.32;;;18.80;99.90;;;19.65;86.42;98504.44;5175238;28;20202;-62
2021/08/14 02:24:57;;;;;;;11.20;10.20;;;18.80;99.90;;;19.65;86.11;98506.13;5166746;28;20689;-62
2021/08/14 02:27:30;;;;;;;11.98;10.77;;;18.70;99.90;;;19.63;86.74;98505.19;5179709;28;20209;-62
2021/08/14 02:30:06;;;;;;;11.32;10.23;;;18.70;99.90;;;19.55;86.31;98507.56;5171077;28;20217;-62
2021/08/14 02:32:39;;;;;;;11.30;10.30;;;18.60;99.90;;;19.55;86.93;98497.19;5171656;28;20272;-61
2021/08/14 02:35:12;;;;;;;12.25;11.15;;;18.60;99.90;;;19.49;87.18;98507.38;5166277;28;20219;-61
2021/08/14 02:37:45;;;;;;;11.45;10.55;;;18.60;99.90;;;19.47;86.82;98512.47;5170104;28;20238;-62
2021/08/14 02:40:19;;;;;;;11.32;10.30;;;18.50;99.90;;;19.43;86.96;98502.84;5179792;28;20203;-62
2021/08/14 02:42:52;;;;;;;11.30;10.38;;;18.50;99.90;;;19.39;87.16;98489.72;5176525;28;20693;-61
2021/08/14 02:45:27;;;;;;;12.13;11.05;;;18.50;99.90;;;19.36;87.27;98501.75;5170437;28;20317;-61
2021/08/14 02:48:01;;;;;;;11.32;10.25;;;18.40;99.90;;;19.33;87.10;98511.16;5164979;28;20202;-61
2021/08/14 02:50:35;;;;;;;10.73;9.75;;;18.40;99.90;;;19.32;86.65;98507.69;5169553;28;20203;-61
2021/08/14 02:53:08;;;;;;;11.60;10.50;;;18.40;99.90;;;19.33;86.65;98499.06;5173628;28;20655;-62
2021/08/14 02:55:42;;;;;;;11.15;10.20;;;18.40;99.90;;;19.28;87.14;98503.22;5167555;28;20590;-61
2021/08/14 02:58:15;;;;;;;11.88;10.90;;;18.40;99.90;;;19.24;87.25;98501.38;5169783;28;20199;-61
2021/08/14 03:00:50;;;;;;;11.45;10.32;;;18.40;99.90;;;19.27;86.68;98498.00;5181845;28;20576;-61
2021/08/14 03:03:23;;;;;;;11.02;10.10;;;18.30;99.90;;;19.22;86.79;98497.81;5169089;28;20231;-62
2021/08/14 03:05:56;;;;;;;11.10;10.10;;;18.30;99.90;;;19.18;86.42;98498.56;5173966;28;20321;-61
2021/08/14 03:08:29;;;;;;;10.68;9.85;;;18.30;99.90;;;19.11;86.46;98504.34;5165871;28;20222;-61
2021/08/14 03:11:02;;;;;;;11.40;10.40;;;18.20;99.90;;;19.05;86.70;98498.97;5172142;28;20210;-62
2021/08/14 03:13:35;;;;;;;10.57;9.68;;;18.20;99.90;;;18.99;86.67;98498.78;5164239;28;20192;-61
2021/08/14 03:16:09;;;;;;;10.85;9.75;;;18.10;99.90;;;18.89;86.28;98498.47;5165314;28;20222;-61
2021/08/14 03:18:42;;;;;;;10.52;9.60;;;17.90;99.90;;;18.77;86.06;98491.97;5180170;28;20205;-61
2021/08/14 03:21:15;;;;;;;11.57;10.55;;;17.80;99.90;;;18.81;86.57;98497.31;5175690;28;20198;-61
2021/08/14 03:23:48;;;;;;;10.98;10.05;;;17.80;99.90;;;18.75;87.37;98494.50;5174769;28;20219;-62
2021/08/14 03:26:22;;;;;;;10.88;9.88;;;17.90;99.90;;;18.76;87.88;98485.91;5164559;28;20593;-61
2021/08/14 03:28:55;;;;;;;11.40;10.32;;;17.90;99.90;;;18.80;87.10;98492.97;5165462;28;20197;-61
2021/08/14 03:31:30;;;;;;;11.43;10.43;;;17.90;99.90;;;18.83;87.41;98487.91;5176814;28;20199;-61
2021/08/14 03:34:03;;;;;;;11.10;10.10;;;17.90;99.90;;;18.84;87.43;98494.81;5172816;28;20198;-62
2021/08/14 03:36:36;;;;;;;11.18;10.18;;;18.00;99.90;;;18.82;87.05;98493.88;5172170;28;20285;-62
2021/08/14 03:39:09;;;;;;;12.25;11.05;;;17.90;99.90;;;18.76;87.95;98496.25;5175647;28;20285;-61
2021/08/14 03:41:42;;;;;;;11.73;10.57;;;17.90;99.90;;;18.74;88.14;98503.09;5171474;28;20207;-61
2021/08/14 03:44:19;;;;;;;11.15;10.15;;;17.90;99.90;;;18.74;88.03;98495.31;5168144;28;20608;-61
2021/08/14 03:46:53;;;;;;;10.88;9.98;;;17.90;99.90;;;18.76;88.19;98496.25;5171834;28;20213;-61
2021/08/14 03:49:26;;;;;;;11.40;10.40;;;17.90;99.90;;;18.79;88.67;98498.09;5168464;28;20204;-61
2021/08/14 03:51:59;;;;;;;11.27;10.25;;;18.00;99.90;;;18.80;87.46;98492.97;5171359;28;20194;-61
2021/08/14 03:54:32;;;;;;;11.20;10.30;;;17.90;99.90;;;18.81;87.14;98493.84;5163972;28;20215;-61
2021/08/14 03:57:06;;;;;;;10.80;9.82;;;17.90;99.90;;;18.75;87.98;98491.94;5163815;28;20210;-61
2021/08/14 03:59:39;;;;;;;11.32;10.27;;;17.90;99.90;;;18.75;87.89;98498.81;5163669;28;20192;-60
2021/08/14 04:02:13;;;;;;;11.02;10.00;;;17.90;99.90;;;18.72;87.58;98496.09;5166618;28;20203;-61
2021/08/14 04:04:46;;;;;;;10.80;9.93;;;17.80;99.90;;;18.72;87.31;98493.50;5170372;28;20222;-61
2021/08/14 04:07:19;;;;;;;10.70;9.70;;;17.80;99.90;;;18.73;86.59;98495.25;5172344;28;20298;-61
2021/08/14 04:09:52;;;;;;;10.80;9.90;;;17.70;99.90;;;18.71;86.18;98492.59;5169173;28;20222;-62
2021/08/14 04:12:25;;;;;;;10.98;9.98;;;17.70;99.90;;;18.67;86.73;98498.50;5178081;28;20297;-61
2021/08/14 04:14:59;;;;;;;11.43;10.32;;;17.70;99.90;;;18.60;87.17;98493.91;5167523;28;20221;-62
2021/08/14 04:17:39;;;;;;;9.75;8.85;;;17.70;99.90;;;18.58;87.80;98495.59;5177961;28;20206;-61
2021/08/14 04:20:13;;;;;;;10.88;9.98;;;17.70;99.90;;;18.59;87.33;98497.34;5177152;28;20194;-61
2021/08/14 04:22:46;;;;;;;10.32;9.43;;;17.70;99.90;;;18.62;87.76;98493.16;5167095;28;20191;-61
2021/08/14 04:25:20;;;;;;;11.38;10.40;;;17.70;99.90;;;18.60;87.72;98504.28;5166733;28;20226;-61
2021/08/14 04:27:53;;;;;;;11.05;10.15;;;17.70;99.90;;;18.56;88.37;98507.59;5172173;28;20212;-62
2021/08/14 04:30:26;;;;;;;11.55;10.65;;;17.70;99.90;;;18.61;87.72;98501.75;5182695;28;20194;-61
2021/08/14 04:33:00;;;;;;;11.93;10.85;;;17.70;99.90;;;18.59;87.71;98505.13;5166810;28;20652;-62
2021/08/14 04:35:33;;;;;;;11.55;10.55;;;17.70;99.90;;;18.53;87.58;98504.91;5171303;28;20221;-61
2021/08/14 04:38:06;;;;;;;10.57;9.77;;;17.60;99.90;;;18.55;87.73;98505.84;5192040;28;20676;-61
2021/08/14 04:40:40;;;;;;;10.98;9.93;;;17.70;99.90;;;18.56;87.06;98503.28;5166884;28;20197;-61
2021/08/14 04:43:13;;;;;;;11.07;9.98;;;17.70;99.90;;;18.56;86.90;98503.28;5182032;28;20202;-61
2021/08/14 04:45:46;;;;;;;11.02;10.20;;;17.60;99.90;;;18.57;85.97;98504.16;5171695;28;20711;-61
2021/08/14 04:48:20;;;;;;;10.05;9.15;;;17.50;99.90;;;18.52;86.15;98496.25;5167093;28;20210;-61
2021/08/14 04:50:53;;;;;;;10.80;9.90;;;17.60;99.90;;;18.55;86.17;98495.50;5175702;28;20213;-60
2021/08/14 04:53:26;;;;;;;11.43;10.32;;;17.60;99.90;;;18.59;87.17;98493.03;5166668;28;20199;-61
2021/08/14 04:55:59;;;;;;;10.27;9.38;;;17.70;99.90;;;18.62;87.65;98497.44;5178259;28;20885;-61
2021/08/14 04:58:32;;;;;;;11.57;10.57;;;17.80;99.90;;;18.64;87.57;98501.88;5175244;28;20205;-61
2021/08/14 05:01:05;;;;;;;12.02;10.93;;;17.80;99.90;;;18.65;87.72;98505.31;5168476;28;20222;-62
2021/08/14 05:03:39;;;;;;;11.18;10.18;;;17.80;99.90;;;18.69;87.59;98495.16;5169599;28;20205;-61
2021/08/14 05:06:12;;;;;;;10.60;9.70;;;17.90;99.90;;;18.75;87.03;98497.09;5172211;28;20234;-61
2021/08/14 05:08:45;;;;;;;10.98;10.02;;;17.90;99.90;;;18.81;86.85;98496.44;5199162;22;20226;-64
2021/08/14 05:11:18;;;;;;;11.80;10.70;;;17.90;99.90;;;18.80;86.49;98497.25;5208806;28;20685;-65
2021/08/14 05:13:51;;;;;;;11.18;10.18;;;17.90;99.90;;;18.78;87.21;98501.50;5196456;28;20654;-65
2021/08/14 05:16:25;;;;;;;11.70;10.60;;;18.00;99.90;;;18.79;87.10;98503.25;5207070;28;20208;-65
2021/08/14 05:18:59;;;;;;;11.73;10.70;;;18.00;99.90;;;18.83;87.23;98498.25;5191619;28;20697;-65
2021/08/14 05:21:33;;;;;;;10.68;9.57;;;18.00;99.90;;;18.87;86.72;98497.53;5189768;28;20262;-65
2021/08/14 05:24:06;;;;;;;10.93;9.98;;;18.00;99.90;;;18.98;85.69;98499.63;5186892;28;20209;-65
2021/08/14 05:26:40;;;;;;;11.10;10.05;;;18.00;99.90;;;19.23;85.29;98501.28;5184479;28;20568;-65
2021/08/14 05:29:13;;;;;;;10.75;9.80;;;18.20;99.90;;;19.72;83.81;98501.22;5185154;28;20584;-65
2021/08/14 05:31:46;;;;;;;10.80;9.70;;;18.70;99.90;;;20.33;81.04;98507.34;5185876;28;20708;-66
2021/08/14 05:34:21;;;;;;;10.23;9.23;;;19.20;99.90;;;21.03;77.62;98503.28;5185488;28;20206;-67
2021/08/14 05:36:54;;;;;;;9.95;9.05;;;19.80;99.90;;;21.61;74.62;98503.00;5189000;28;20284;-67
2021/08/14 05:39:26;;;;;;;10.00;9.10;;;20.20;99.90;;;22.05;72.31;98504.84;5185672;28;20222;-66
2021/08/14 05:42:00;;;;;;;10.20;9.30;;;20.60;99.90;;;22.33;71.36;98507.22;5185996;28;20195;-65
2021/08/14 05:44:33;;;;;;;9.15;8.45;;;20.80;99.90;;;22.82;69.78;98506.47;5184989;28;20219;-67
2021/08/14 05:47:06;;;;;;;9.90;9.00;;;21.30;99.90;;;23.05;68.31;98517.34;5183164;28;20209;-66
2021/08/14 05:49:41;;;;;;;10.75;9.65;;;21.50;99.90;;;23.38;66.34;98510.97;5183695;28;20230;-65
2021/08/14 05:52:14;;;;;;;11.30;9.82;;;21.70;99.90;;;23.54;65.66;98506.88;5182334;28;20201;-65
2021/08/14 05:54:46;;;;;;;10.57;9.70;;;21.80;99.90;;;23.78;65.67;98507.28;5181486;28;20209;-65
2021/08/14 05:57:19;;;;;;;9.95;9.15;;;21.90;99.90;;;24.03;65.01;98508.50;5182772;28;20198;-65
2021/08/14 05:59:52;;;;;;;10.73;9.73;;;22.00;99.90;;;24.21;64.06;98513.13;5182021;28;20225;-67
2021/08/14 06:02:25;;;;;;;10.88;9.88;;;22.20;99.90;;;24.27;63.36;98513.19;5177858;28;20203;-67
2021/08/14 06:05:00;;;;;;;10.73;9.73;;;22.30;99.90;;;24.47;62.61;98517.84;5178592;28;20222;-67
2021/08/14 06:07:33;;;;;;;11.18;10.27;;;22.30;99.90;;;24.31;63.68;98514.09;5181896;28;20194;-67
2021/08/14 06:10:08;;;;;;;10.50;9.60;;;22.50;99.90;;;24.68;62.86;98518.06;5183046;28;20333;-68
2021/08/14 06:12:41;;;;;;;10.82;9.77;;;22.60;99.90;;;25.02;61.20;98514.97;5182534;28;20712;-67
2021/08/14 06:15:15;;;;;;;10.63;9.70;;;22.90;99.90;;;25.47;60.79;98509.31;5183435;28;20285;-68
2021/08/14 06:17:48;;;;;;;10.25;9.35;;;23.00;99.90;;;25.74;59.00;98513.84;5182008;28;20200;-68
2021/08/14 06:20:22;;;;;;;10.55;9.73;;;23.30;99.90;;;26.11;58.12;98513.25;5178787;28;20596;-67
2021/08/14 06:22:55;;;;;;;11.20;10.05;;;23.60;99.90;;;26.33;57.07;98509.88;5181812;28;20201;-68
2021/08/14 06:25:28;;;;;;;10.00;8.88;;;23.70;99.90;;;26.66;56.64;98509.16;5184427;28;20224;-68
2021/08/14 06:28:01;;;;;;;10.77;9.80;;;23.90;99.90;;;27.02;55.92;98511.88;5182062;28;20555;-67
2021/08/14 06:30:34;;;;;;;10.40;9.48;;;24.30;99.90;;;27.06;56.09;98504.00;5177931;28;20569;-66
2021/08/14 06:33:08;;;;;;;11.07;10.07;;;24.40;99.90;;;27.52;54.41;98504.06;5182377;28;20205;-65
2021/08/14 06:35:42;;;;;;;10.30;9.40;;;24.80;99.90;;;28.04;53.82;98503.13;5182916;28;20702;-65
2021/08/14 06:38:15;;;;;;;10.15;9.25;;;25.10;99.90;;;28.39;52.63;98516.19;5181764;28;20689;-64
2021/08/14 06:40:48;;;;;;;10.48;9.50;;;25.40;99.90;;;28.39;52.12;98517.97;5183728;28;20204;-64
2021/08/14 06:43:21;;;;;;;9.85;9.05;;;25.80;99.90;;;28.78;51.13;98510.78;5184273;28;20205;-65
2021/08/14 06:45:54;;;;;;;10.50;9.50;;;26.00;99.90;;;29.04;50.92;98510.66;5182861;28;20214;-65
2021/08/14 06:48:27;;;;;;;10.77;9.88;;;26.20;99.90;;;29.22;50.15;98509.66;5180616;28;20713;-65
2021/08/14 06:51:02;;;;;;;10.63;9.70;;;26.30;99.90;;;29.40;50.23;98506.91;5185019;28;20200;-65
2021/08/14 06:53:34;;;;;;;10.43;9.52;;;26.60;99.90;;;29.55;50.01;98504.13;5183171;28;20197;-65
2021/08/14 06:56:08;;;;;;;10.43;9.50;;;26.70;99.90;;;29.91;48.80;98506.47;5181113;28;20208;-65
2021/08/14 06:58:41;;;;;;;10.63;9.45;;;27.00;99.90;;;30.08;49.41;98505.41;5183394;28;20305;-64
2021/08/14 07:01:14;;;;;;;10.55;9.65;;;27.20;99.90;;;30.25;48.59;98509.66;5183722;28;20391;-64
2021/08/14 07:03:47;;;;;;;10.02;9.13;;;27.30;99.90;;;30.59;47.40;98506.59;5183946;28;20197;-65
2021/08/14 07:06:23;;;;;;;10.85;10.02;;;27.60;99.90;;;30.38;47.80;98508.59;5183703;28;20213;-66
2021/08/14 07:08:56;;;;;;;10.68;9.77;;;27.60;99.90;;;30.53;47.92;98511.06;5182700;28;20590;-65
2021/08/14 07:11:29;;;;;;;10.75;9.75;;;27.70;99.90;;;30.96;46.73;98517.53;5181945;28;20198;-66
2021/08/14 07:14:02;;;;;;;10.27;9.38;;;27.90;99.90;;;31.05;46.72;98512.16;5185167;28;20930;-65
2021/08/14 07:16:34;;;;;;;10.88;9.93;;;28.00;99.90;;;31.09;46.41;98502.41;5182271;28;20204;-65
2021/08/14 07:19:08;;;;;;;10.52;9.73;;;28.20;99.90;;;31.19;46.02;98509.28;5182520;28;20260;-61
2021/08/14 07:21:42;;;;;;;9.68;8.80;;;28.30;99.90;;;31.50;45.28;98498.25;5182052;28;20206;-63
2021/08/14 07:24:15;;;;;;;9.30;8.50;;;28.40;99.90;;;31.95;44.37;98501.03;5179974;28;20683;-64
2021/08/14 07:26:48;;;;;;;9.63;8.80;;;28.60;99.70;;;32.27;43.45;98492.47;5180796;28;20252;-61
2021/08/14 07:29:21;;;;;;;10.43;9.48;;;29.00;99.00;;;32.14;43.56;98497.13;5182556;28;20222;-64
2021/08/14 07:31:54;;;;;;;9.98;9.07;;;29.10;98.80;;;32.10;43.75;98490.13;5182240;28;20567;-66
2021/08/14 07:34:27;;;;;;;9.70;8.73;;;28.80;99.00;;;32.12;43.55;98492.78;5175398;28;20194;-64
2021/08/14 07:37:01;;;;;;;10.13;9.13;;;28.90;99.20;;;32.43;43.41;98487.75;5183883;28;20658;-63
2021/08/14 07:39:34;;;;;;;9.82;8.82;;;28.90;99.10;;;32.88;41.79;98483.25;5170923;28;20237;-63
2021/08/14 07:42:07;;;;;;;9.15;8.45;;;29.30;98.00;;;32.77;41.91;98481.75;5177897;28;20654;-65
2021/08/14 07:44:40;;;;;;;9.27;8.57;;;29.30;98.50;;;32.83;41.95;98486.91;5181956;28;20194;-61
2021/08/14 07:47:20;;;;;;;9.65;8.85;;;29.50;98.20;;;33.17;41.68;98482.59;5184280;28;20221;-62
2021/08/14 07:49:53;;;;;;;9.73;8.98;;;29.50;97.80;;;33.76;40.13;98475.84;5186227;28;20240;-63
2021/08/14 07:52:28;;;;;;;9.40;8.20;;;29.90;97.40;;;33.89;39.68;98476.41;5185185;28;20194;-63
2021/08/14 07:55:00;;;;;;;8.95;8.13;;;30.40;96.30;;;33.71;39.57;98472.44;5182527;28;20201;-62
2021/08/14 07:57:38;;;;;;;9.02;8.13;;;30.60;95.30;;;33.37;40.24;98473.28;5185972;28;20198;-63
2021/08/14 08:00:15;;;;;;;9.35;8.52;;;30.60;95.20;;;33.15;40.03;98473.78;5186209;28;20212;-64
2021/08/14 08:02:48;;;;;;;8.35;7.65;;;30.50;95.40;;;32.65;41.48;98472.28;5187164;28;20712;-63
2021/08/14 08:05:22;;;;;;;10.55;8.10;;;30.30;95.40;;;32.74;41.72;98467.66;5192200;28;20193;-64
2021/08/14 08:07:56;;;;;;;9.23;8.32;;;30.40;95.60;;;32.71;41.91;98466.88;5185628;28;20580;-64
2021/08/14 08:10:30;;;;;;;9.18;8.27;;;30.40;95.30;;;32.84;41.28;98470.09;5185937;28;20208;-63
2021/08/14 08:13:03;;;;;;;8.57;7.80;;;30.60;95.00;;;32.96;41.01;98467.16;5185397;28;20197;-63
2021/08/14 08:15:36;;;;;;;9.13;8.10;;;30.60;95.20;;;32.78;42.54;98470.25;5185519;28;20190;-66
2021/08/14 08:18:12;;;;;;;9.15;8.25;;;30.70;95.30;;;32.82;41.17;98472.75;5187151;28;20302;-63
2021/08/14 08:20:46;;;;;;;9.02;8.23;;;31.10;94.40;;;32.90;41.31;98464.66;5185793;28;20190;-63
2021/08/14 08:23:20;;;;;;;10.02;9.25;;;30.90;94.40;;;32.93;41.72;98462.78;5184707;28;20205;-63
2021/08/14 08:25:53;;;;;;;8.40;7.70;;;31.00;94.70;;;33.02;41.09;98451.13;5184385;28;20202;-63
2021/08/14 08:28:26;;;;;;;8.52;7.82;;;31.10;94.40;;;32.84;41.68;98459.50;5185977;28;20210;-63
2021/08/14 08:30:59;;;;;;;9.00;8.05;;;30.90;94.20;;;32.78;41.01;98468.47;5187090;28;20198;-63
2021/08/14 08:33:32;;;;;;;8.23;7.50;;;30.90;94.30;;;32.71;41.39;98448.34;5186964;28;20198;-63
2021/08/14 08:36:05;;;;;;;9.10;8.30;;;31.00;94.30;;;32.84;39.80;98448.91;5186257;28;20194;-65
2021/08/14 08:38:40;;;;;;;9.10;7.95;;;31.10;92.80;;;32.65;41.31;98443.16;5187127;28;20214;-63
2021/08/14 08:41:13;;;;;;;7.88;7.25;;;31.00;94.00;;;32.65;41.05;98446.69;5186630;28;20252;-63
2021/08/14 08:43:46;;;;;;;8.05;7.28;;;31.00;93.00;;;32.87;40.12;98447.06;5186573;28;20578;-63
2021/08/14 08:46:20;;;;;;;8.70;7.88;;;31.20;92.60;;;32.82;40.17;98442.75;5186321;28;20225;-63
2021/08/14 08:48:54;;;;;;;8.88;8.10;;;31.40;92.30;;;32.89;39.67;98439.09;5186802;28;20218;-63
2021/08/14 08:51:31;;;;;;;7.60;6.90;;;31.30;91.80;;;32.98;38.38;98441.50;5186857;28;20204;-63
2021/08/14 08:54:06;;;;;;;7.57;7.05;;;31.60;91.10;;;33.02;38.61;98440.53;5186641;28;20204;-63
2021/08/14 08:56:39;;;;;;;7.95;7.22;;;31.60;90.90;;;33.01;39.04;98443.25;5185644;28;20200;-63
2021/08/14 08:59:12;;;;;;;7.95;7.25;;;31.70;91.20;;;32.90;38.60;98435.50;5185930;28;20252;-63
2021/08/14 09:01:45;;;;;;;7.30;6.70;;;31.50;90.50;;;32.80;38.76;98434.00;5186303;28;20281;-63
2021/08/14 09:04:23;;;;;;;7.13;6.53;;;31.40;90.80;;;32.58;37.86;98439.78;5186302;28;20267;-63
2021/08/14 09:07:01;;;;;;;7.40;6.70;;;31.40;90.30;;;32.49;38.13;98429.41;5185713;28;20210;-63
2021/08/14 09:09:35;;;;;;;7.40;6.80;;;31.20;90.50;;;32.62;38.27;98430.84;5185882;28;20229;-63
2021/08/14 09:12:09;;;;;;;6.97;6.47;;;31.40;90.00;;;32.84;38.71;98431.22;5186458;28;20277;-66
2021/08/14 09:14:47;;;;;;;7.05;6.35;;;31.60;90.30;;;32.92;38.19;98425.75;5185634;28;20581;-63
2021/08/14 09:17:27;;;;;;;7.90;7.30;;;31.70;90.20;;;32.77;39.06;98428.78;5186266;28;20301;-65
2021/08/14 09:20:10;;;;;;;7.47;6.88;;;31.40;91.00;;;32.93;39.33;98427.50;5178774;28;20218;-65
2021/08/14 09:22:46;;;;;;;7.78;7.13;;;31.50;91.10;;;32.91;37.69;98421.38;5185824;28;20205;-65
2021/08/14 09:25:21;;;;;;;7.25;6.75;;;31.70;90.00;;;32.96;38.05;98415.03;5186130;28;20588;-65
2021/08/14 09:27:57;;;;;;;7.50;6.80;;;31.60;89.10;;;32.97;37.34;98422.09;5185837;28;20220;-65
2021/08/14 09:30:50;;;;;;;6.90;6.30;;;31.50;88.10;;;32.98;37.00;98415.00;5185872;28;20539;-65
2021/08/14 09:33:26;;;;;;;7.28;6.70;;;31.60;88.30;;;33.11;37.55;98423.56;5185739;28;20197;-65
2021/08/14 09:36:01;;;;;;;6.72;6.22;;;31.80;88.10;;;33.11;37.45;98413.84;5185501;28;20631;-65
2021/08/14 09:38:41;;;;;;;6.78;6.15;;;32.00;89.30;;;33.12;37.37;98420.88;5183747;28;20748;-65
2021/08/14 09:41:17;;;;;;;7.18;6.57;;;32.00;87.60;;;33.21;36.89;98409.19;5182115;28;20672;-65
2021/08/14 09:43:52;;;;;;;6.97;6.32;;;32.10;88.10;;;33.37;36.97;98409.66;5184454;28;20202;-66
2021/08/14 09:46:41;;;;;;;6.55;5.95;;;32.00;88.80;;;33.37;36.85;98414.97;5185063;28;20208;-65
2021/08/14 09:49:14;;;;;;;7.32;6.60;;;32.20;88.40;;;33.42;37.08;98407.75;5185368;28;20233;-65
2021/08/14 09:51:47;;;;;;;7.88;7.18;;;32.00;89.20;;;33.24;37.07;98408.22;5182284;28;20202;-65
2021/08/14 09:54:21;;;;;;;7.25;6.65;;;32.00;87.30;;;33.18;37.53;98399.53;5185001;28;20677;-65
2021/08/14 09:56:55;;;;;;;6.65;6.15;;;32.00;87.60;;;33.26;37.43;98401.13;5185178;28;20194;-65
2021/08/14 09:59:28;;;;;;;7.90;7.30;;;32.00;87.10;;;33.17;36.63;98402.22;5185232;28;20221;-66
2021/08/14 10:02:06;;;;;;;7.35;6.75;;;32.00;86.50;;;33.15;36.98;98399.59;5185292;28;20240;-65
2021/08/14 10:04:39;;;;;;;7.93;7.07;;;31.80;88.50;;;33.04;38.18;98398.13;5184200;28;20249;-66
2021/08/14 10:07:14;;;;;;;7.78;7.05;;;31.70;89.00;;;32.93;38.36;98398.34;5182401;28;20252;-65
2021/08/14 10:09:49;;;;;;;7.30;6.60;;;31.80;90.00;;;32.95;37.71;98385.94;5183656;28;20573;-65
2021/08/14 10:12:23;;;;;;;8.30;7.05;;;31.80;88.30;;;32.86;38.70;98380.88;5184813;28;20194;-65
2021/08/14 10:14:59;;;;;;;8.13;7.43;;;31.80;89.00;;;32.90;38.25;98374.59;5182809;28;20201;-65
2021/08/14 10:17:35;;;;;;;7.53;6.88;;;31.70;89.40;;;32.87;38.45;98372.88;5185614;28;20194;-65
2021/08/14 10:20:10;;;;;;;7.40;6.68;;;31.60;90.00;;;32.95;39.58;98370.91;5184691;28;20210;-65
2021/08/14 10:22:46;;;;;;;7.70;7.00;;;31.80;89.80;;;32.93;38.52;98358.63;5183757;28;20208;-65
2021/08/14 10:25:20;;;;;;;8.10;7.40;;;31.80;89.10;;;32.83;38.11;98365.06;5180270;28;20240;-65
2021/08/14 10:27:58;;;;;;;7.88;7.18;;;31.70;88.10;;;32.77;39.60;98359.94;5180548;28;20215;-65
2021/08/14 10:30:45;;;;;;;8.43;7.72;;;31.70;89.80;;;32.78;39.53;98359.00;5182149;28;20202;-65
2021/08/14 10:33:40;;;;;;;7.60;6.90;;;31.60;90.00;;;32.91;39.51;98349.88;5183429;28;20209;-65
2021/08/14 10:36:38;;;;;;;7.85;7.25;;;31.70;90.00;;;32.89;38.67;98349.88;5181439;28;20198;-65
2021/08/14 10:39:23;;;;;;;9.30;7.78;;;31.60;90.30;;;32.89;39.40;98343.72;5180047;28;20226;-65
2021/08/14 10:41:59;;;;;;;8.15;7.50;;;31.60;90.20;;;32.81;39.00;98350.97;5181699;28;20198;-65